Time;durP1;ratioP1;P1;durP2;ratioP2;P2;SDS_P1;SDS_P2;PMS_P1;PMS_P2;Temp;Humidity;BMP_temperature;BMP_pressure;BME280_temperature;BME280_humidity;BME280_pressure;Samples;Min_cycle;Max_cycle;Signal;HPM_P1;HPM_P2
2023/10/20 00:02:05;;;;;;;14.03;12.23;;;;;;;17.56;71.48;94758.00;5029035;28;20606;-70
2023/10/20 00:04:31;;;;;;;14.97;12.23;;;;;;;17.56;71.46;94744.75;5037945;28;20190;-70
2023/10/20 00:06:58;;;;;;;15.30;11.67;;;;;;;17.58;71.38;94744.53;5032995;28;20677;-70
2023/10/20 00:09:24;;;;;;;16.37;13.20;;;;;;;17.59;71.23;94744.25;5030398;28;20179;-69
2023/10/20 00:11:51;;;;;;;16.33;11.90;;;;;;;17.57;71.13;94743.72;5019374;28;20497;-70
2023/10/20 00:14:17;;;;;;;12.13;10.90;;;;;;;17.58;71.10;94745.31;5040188;28;20800;-68
2023/10/20 00:16:43;;;;;;;13.90;12.07;;;;;;;17.60;71.12;94745.03;5022887;28;20446;-68
2023/10/20 00:19:08;;;;;;;17.87;11.90;;;;;;;17.58;71.10;94740.03;5036464;28;20470;-68
2023/10/20 00:21:35;;;;;;;15.27;12.80;;;;;;;17.59;71.15;94744.25;5036488;28;20203;-69
2023/10/20 00:24:01;;;;;;;14.60;12.13;;;;;;;17.60;71.13;94748.50;5035312;28;20192;-69
2023/10/20 00:26:26;;;;;;;14.13;12.73;;;;;;;17.62;70.96;94753.53;5030029;28;20472;-69
2023/10/20 00:28:51;;;;;;;14.57;12.27;;;;;;;17.60;70.96;94751.16;5028252;28;20180;-68
2023/10/20 00:31:18;;;;;;;13.20;11.80;;;;;;;17.57;71.07;94751.66;5033227;28;20315;-69
2023/10/20 00:33:45;;;;;;;12.07;10.97;;;;;;;17.59;71.16;94751.38;5025707;28;20641;-69
2023/10/20 00:36:11;;;;;;;13.47;11.40;;;;;;;17.58;71.23;94750.59;5026534;28;20947;-69
2023/10/20 00:38:37;;;;;;;13.40;12.07;;;;;;;17.57;71.28;94740.28;5032726;28;20519;-69
2023/10/20 00:41:02;;;;;;;16.13;13.43;;;;;;;17.54;71.39;94720.38;5029618;28;20222;-69
2023/10/20 00:43:38;;;;;;;13.87;12.00;;;;;;;17.54;71.32;94709.81;5031280;28;20419;-70
2023/10/20 00:46:04;;;;;;;14.13;12.73;;;;;;;17.54;71.49;94709.03;5028608;28;20183;-68
2023/10/20 00:48:31;;;;;;;11.83;10.70;;;;;;;17.54;71.32;94704.50;5028256;28;20480;-69
2023/10/20 00:50:59;;;;;;;14.80;13.30;;;;;;;17.52;71.49;94701.31;5026399;28;20458;-69
2023/10/20 00:53:27;;;;;;;13.63;12.20;;;;;;;17.54;71.59;94701.06;5033658;28;20422;-70
2023/10/20 00:55:53;;;;;;;12.77;11.47;;;;;;;17.56;71.56;94697.09;5029241;28;20521;-69
2023/10/20 00:58:19;;;;;;;15.67;12.93;;;;;;;17.55;71.75;94703.44;5030264;28;20477;-70
2023/10/20 01:00:44;;;;;;;13.87;11.23;;;;;;;17.55;71.63;94689.44;5029620;28;20438;-70
2023/10/20 01:03:10;;;;;;;12.43;11.23;;;;;;;17.50;71.60;94676.97;5030944;28;20180;-69
2023/10/20 01:05:36;;;;;;;12.53;11.23;;;;;;;17.48;71.84;94679.06;5028207;28;20212;-69
2023/10/20 01:08:02;;;;;;;12.17;11.07;;;;;;;17.47;71.74;94672.97;5028171;28;20422;-69
2023/10/20 01:10:28;;;;;;;13.37;11.97;;;;;;;17.46;71.78;94666.06;5032352;28;20565;-69
2023/10/20 01:12:53;;;;;;;12.40;10.90;;;;;;;17.45;71.85;94664.47;5027753;28;20291;-68
2023/10/20 01:15:19;;;;;;;12.90;11.53;;;;;;;17.46;71.86;94665.28;5026561;28;20422;-69
2023/10/20 01:17:45;;;;;;;13.80;12.43;;;;;;;17.45;71.93;94658.41;5027938;28;20180;-69
2023/10/20 01:20:11;;;;;;;13.20;11.87;;;;;;;17.46;72.12;94660.00;5035816;28;20226;-69
2023/10/20 01:22:36;;;;;;;13.67;12.23;;;;;;;17.46;72.03;94646.75;5038273;28;20194;-71
2023/10/20 01:25:02;;;;;;;11.70;10.53;;;;;;;17.47;71.95;94656.31;5034476;28;20427;-70
2023/10/20 01:27:28;;;;;;;12.23;10.80;;;;;;;17.50;72.09;94650.50;5031695;28;20187;-70
2023/10/20 01:29:54;;;;;;;12.27;11.07;;;;;;;17.44;71.88;94654.97;5034719;28;20219;-69
2023/10/20 01:32:19;;;;;;;13.23;11.00;;;;;;;17.41;72.25;94650.19;5032541;28;20430;-69
2023/10/20 01:34:44;;;;;;;12.03;10.83;;;;;;;17.42;72.14;94643.03;5031824;28;20262;-69
2023/10/20 01:37:11;;;;;;;13.93;11.37;;;;;;;17.39;72.28;94625.81;5040212;28;20187;-70
2023/10/20 01:39:41;;;;;;;13.83;12.47;;;;;;;17.39;72.33;94617.09;5036365;28;20218;-69
2023/10/20 01:42:07;;;;;;;14.10;11.97;;;;;;;17.42;72.21;94603.31;5035426;28;20441;-69
2023/10/20 01:44:32;;;;;;;13.80;12.40;;;;;;;17.44;72.09;94606.53;5034622;28;20921;-69
2023/10/20 01:46:59;;;;;;;19.53;11.50;;;;;;;17.44;72.13;94588.00;5032748;28;20211;-70
2023/10/20 01:49:24;;;;;;;12.80;11.53;;;;;;;17.43;72.12;94581.09;5031280;28;20275;-69
2023/10/20 01:51:50;;;;;;;12.17;10.60;;;;;;;17.44;72.19;94572.09;5041777;28;21110;-70
2023/10/20 01:54:15;;;;;;;14.77;11.10;;;;;;;17.38;72.14;94549.34;5033199;28;20576;-69
2023/10/20 01:56:41;;;;;;;12.57;11.17;;;;;;;17.41;72.05;94540.84;5037872;28;20218;-69
2023/10/20 01:59:06;;;;;;;12.67;11.03;;;;;;;17.41;72.12;94528.44;5023528;28;20606;-70
2023/10/20 02:01:32;;;;;;;12.20;10.97;;;;;;;17.37;71.72;94523.91;5038282;28;20246;-69
2023/10/20 02:03:58;;;;;;;13.40;11.50;;;;;;;17.35;71.98;94526.81;5037449;28;20190;-70
2023/10/20 02:06:23;;;;;;;13.60;12.03;;;;;;;17.33;71.88;94529.72;5036324;28;20180;-69
2023/10/20 02:08:49;;;;;;;13.33;11.97;;;;;;;17.32;72.10;94519.41;5041185;28;20463;-70
2023/10/20 02:11:15;;;;;;;16.17;13.13;;;;;;;17.31;72.09;94504.59;5033145;28;20253;-69
2023/10/20 02:13:42;;;;;;;14.77;12.67;;;;;;;17.30;72.24;94492.41;5035381;28;20604;-69
2023/10/20 02:16:11;;;;;;;14.73;11.30;;;;;;;17.29;72.38;94481.00;5038271;28;20222;-69
2023/10/20 02:18:37;;;;;;;13.70;11.43;;;;;;;17.31;72.17;94478.91;5031539;28;20472;-69
2023/10/20 02:21:03;;;;;;;13.23;10.20;;;;;;;17.30;72.17;94471.25;5031268;28;20450;-69
2023/10/20 02:23:34;;;;;;;12.63;10.70;;;;;;;17.25;72.49;94458.78;5041103;28;20443;-70
2023/10/20 02:26:01;;;;;;;11.40;9.50;;;;;;;17.24;72.52;94457.19;5043363;28;20536;-70
2023/10/20 02:28:27;;;;;;;13.50;8.97;;;;;;;17.25;72.52;94463.28;5040400;28;20426;-70
2023/10/20 02:30:54;;;;;;;15.03;8.60;;;;;;;17.26;72.53;94455.09;5036666;28;20528;-70
2023/10/20 02:33:19;;;;;;;11.30;8.93;;;;;;;17.28;72.58;94452.97;5028144;28;20710;-69
2023/10/20 02:35:45;;;;;;;10.53;9.43;;;;;;;17.25;72.53;94444.75;5036010;28;20453;-70
2023/10/20 02:38:10;;;;;;;12.53;10.00;;;;;;;17.23;72.30;94450.31;5033307;28;20278;-69
2023/10/20 02:40:35;;;;;;;12.60;9.70;;;;;;;17.19;72.10;94455.34;5040238;28;20277;-70
2023/10/20 02:43:01;;;;;;;10.03;7.80;;;;;;;17.22;72.53;94461.16;5033570;28;20195;-70
2023/10/20 02:45:26;;;;;;;11.53;8.37;;;;;;;17.23;72.56;94462.75;5038768;28;20196;-69
2023/10/20 02:47:52;;;;;;;7.43;6.83;;;;;;;17.21;72.58;94465.66;5035632;28;20658;-70
2023/10/20 02:50:17;;;;;;;8.57;7.70;;;;;;;17.23;72.50;94463.53;5031055;28;20311;-69
2023/10/20 02:52:43;;;;;;;11.63;7.93;;;;;;;17.22;72.63;94464.59;5022942;28;20179;-70
2023/10/20 02:55:09;;;;;;;10.40;7.20;;;;;;;17.22;72.46;94461.94;5038429;28;20188;-69
2023/10/20 02:57:36;;;;;;;9.20;7.77;;;;;;;17.24;72.51;94466.97;5030277;28;20882;-70
2023/10/20 03:00:04;;;;;;;12.20;7.20;;;;;;;17.24;72.52;94475.72;5033826;28;20198;-70
2023/10/20 03:02:30;;;;;;;6.70;5.67;;;;;;;17.25;72.38;94474.66;5030310;28;20993;-69
2023/10/20 03:04:56;;;;;;;7.37;5.50;;;;;;;17.22;72.44;94477.84;5044800;28;20959;-69
2023/10/20 03:07:24;;;;;;;5.20;4.80;;;;;;;17.27;72.46;94467.25;5040182;28;20514;-69
2023/10/20 03:09:54;;;;;;;7.83;4.80;;;;;;;17.26;72.12;94470.97;5037527;28;20711;-69
2023/10/20 03:12:19;;;;;;;7.83;4.30;;;;;;;17.31;72.14;94456.94;5033430;28;20435;-69
2023/10/20 03:14:45;;;;;;;5.40;4.90;;;;;;;17.31;71.97;94456.94;5029772;28;20505;-69
2023/10/20 03:17:11;;;;;;;8.90;5.07;;;;;;;17.32;71.85;94445.31;5036069;28;20246;-69
2023/10/20 03:19:38;;;;;;;8.03;4.60;;;;;;;17.32;71.76;94427.56;5026386;28;20525;-70
2023/10/20 03:22:03;;;;;;;6.20;5.60;;;;;;;17.30;71.64;94423.59;5041973;28;20171;-69
2023/10/20 03:24:29;;;;;;;6.77;5.70;;;;;;;17.29;71.86;94417.50;5031763;28;20421;-70
2023/10/20 03:26:54;;;;;;;10.90;5.00;;;;;;;17.30;71.92;94408.50;5029662;28;20192;-70
2023/10/20 03:29:20;;;;;;;7.20;5.30;;;;;;;17.29;71.77;94401.63;5034372;28;20176;-69
2023/10/20 03:31:45;;;;;;;6.63;5.90;;;;;;;17.27;72.04;94393.16;5039087;28;20345;-68
2023/10/20 03:34:11;;;;;;;7.70;6.23;;;;;;;17.30;72.03;94381.25;5020488;28;20229;-69
2023/10/20 03:36:36;;;;;;;6.90;6.20;;;;;;;17.27;72.03;94366.69;5036472;28;20274;-68
2023/10/20 03:39:02;;;;;;;6.70;6.03;;;;;;;17.27;71.93;94369.34;5034503;28;20240;-68
2023/10/20 03:41:29;;;;;;;7.17;6.10;;;;;;;17.25;72.07;94358.25;5040879;28;20652;-68
2023/10/20 03:43:54;;;;;;;8.63;5.80;;;;;;;17.25;72.19;94350.31;5039528;28;20185;-68
2023/10/20 03:46:19;;;;;;;7.10;5.80;;;;;;;17.24;72.12;94356.66;5031886;28;20418;-69
2023/10/20 03:48:45;;;;;;;6.90;5.37;;;;;;;17.25;72.36;94333.63;5033679;28;20175;-68
2023/10/20 03:51:12;;;;;;;10.40;6.20;;;;;;;17.23;72.13;94323.31;5028547;28;20711;-70
2023/10/20 03:53:43;;;;;;;8.50;7.37;;;;;;;17.21;72.42;94320.13;5030582;28;20491;-70
2023/10/20 03:56:08;;;;;;;7.23;6.63;;;;;;;17.20;72.41;94318.53;5034496;28;20441;-68
2023/10/20 03:58:35;;;;;;;7.20;6.50;;;;;;;17.17;72.56;94316.41;5032580;28;20415;-69
2023/10/20 04:01:02;;;;;;;8.27;5.77;;;;;;;17.19;72.27;94309.00;5041294;28;20195;-70
2023/10/20 04:03:30;;;;;;;7.47;6.77;;;;;;;17.18;72.43;94310.06;5029218;28;20434;-69
2023/10/20 04:05:56;;;;;;;10.00;5.77;;;;;;;17.16;72.51;94306.88;5033767;28;20857;-69
2023/10/20 04:08:23;;;;;;;9.00;6.33;;;;;;;17.15;72.61;94290.22;5027650;28;20470;-70
2023/10/20 04:10:48;;;;;;;10.37;6.40;;;;;;;17.18;72.55;94273.03;5030705;28;20473;-69
2023/10/20 04:13:14;;;;;;;6.53;5.93;;;;;;;17.18;72.54;94267.72;5032820;28;20433;-68
2023/10/20 04:15:40;;;;;;;9.13;6.63;;;;;;;17.20;72.49;94265.63;5029546;28;20192;-69
2023/10/20 04:18:06;;;;;;;6.77;6.17;;;;;;;17.19;72.42;94266.69;5037368;28;20187;-69
2023/10/20 04:20:37;;;;;;;10.00;7.70;;;;;;;17.14;72.43;94248.97;5027107;28;20931;-70
2023/10/20 04:23:03;;;;;;;10.43;7.37;;;;;;;17.13;72.50;94238.66;5040325;28;20825;-69
2023/10/20 04:25:33;;;;;;;8.30;7.50;;;;;;;17.11;72.59;94235.47;5031667;28;20425;-68
2023/10/20 04:28:11;;;;;;;7.60;6.80;;;;;;;17.11;72.39;94230.97;5027219;28;20180;-69
2023/10/20 04:54:34;;;;;;;8.83;7.20;;;;;;;17.04;72.48;94173.03;5033450;28;20436;-68
2023/10/20 04:57:33;;;;;;;10.60;7.87;;;;;;;17.03;72.55;94155.59;5027851;28;20430;-69
2023/10/20 05:00:31;;;;;;;12.23;6.70;;;;;;;17.04;72.55;94146.59;5033325;28;20500;-69
2023/10/20 05:08:04;;;;;;;9.73;6.80;;;;;;;17.04;72.59;94104.25;5031610;28;20432;-69
2023/10/20 05:10:29;;;;;;;7.77;7.10;;;;;;;17.08;72.43;94098.44;5036627;28;21016;-68
2023/10/20 05:12:55;;;;;;;12.10;8.30;;;;;;;17.03;72.32;94107.97;5030259;28;20413;-69
2023/10/20 05:15:21;;;;;;;9.00;7.50;;;;;;;17.03;72.29;94091.31;5033117;28;20192;-68
2023/10/20 05:17:46;;;;;;;9.37;7.70;;;;;;;17.04;72.12;94079.69;5025778;28;20732;-69
2023/10/20 05:20:15;;;;;;;9.03;7.17;;;;;;;17.10;71.99;94075.16;5040446;28;20207;-69
2023/10/20 05:22:41;;;;;;;10.07;8.07;;;;;;;17.10;72.06;94065.38;5028506;28;20267;-70
2023/10/20 05:25:08;;;;;;;9.20;8.30;;;;;;;17.11;72.04;94066.16;5035620;28;20824;-69
2023/10/20 05:27:33;;;;;;;10.90;8.70;;;;;;;17.09;71.85;94057.72;5027472;28;20480;-69
2023/10/20 05:29:58;;;;;;;9.00;7.40;;;;;;;17.08;71.87;94048.19;5032872;28;20884;-70
2023/10/20 05:32:24;;;;;;;10.23;7.73;;;;;;;17.07;71.97;94046.59;5025686;28;20182;-69
2023/10/20 05:34:54;;;;;;;9.87;7.50;;;;;;;17.04;71.89;94051.38;5033685;28;20668;-69
2023/10/20 05:37:21;;;;;;;8.70;7.47;;;;;;;17.02;72.07;94031.53;5039858;28;20675;-69
2023/10/20 05:39:47;;;;;;;11.50;8.83;;;;;;;17.02;72.07;94020.97;5027846;28;20427;-69
2023/10/20 05:42:12;;;;;;;11.13;8.43;;;;;;;16.99;71.96;94000.34;5032973;28;20422;-69
2023/10/20 05:44:47;;;;;;;15.63;10.13;;;;;;;16.97;72.04;93976.81;5030060;28;20989;-69
2023/10/20 05:47:13;;;;;;;14.10;8.23;;;;;;;17.02;71.90;93973.34;5034876;28;20187;-68
2023/10/20 05:49:38;;;;;;;11.57;8.97;;;;;;;17.00;71.83;93983.41;5026407;28;20955;-68
2023/10/20 05:52:04;;;;;;;10.63;8.80;;;;;;;16.94;71.90;93989.78;5035835;28;20180;-68
2023/10/20 05:54:31;;;;;;;9.80;8.80;;;;;;;16.94;71.98;93972.06;5031594;28;20305;-67
2023/10/20 05:56:57;;;;;;;10.63;8.13;;;;;;;16.97;71.80;93971.53;5034565;28;20429;-70
2023/10/20 05:59:22;;;;;;;9.30;7.47;;;;;;;16.95;71.26;93960.44;5033154;28;20435;-69
2023/10/20 06:01:47;;;;;;;10.10;7.70;;;;;;;16.92;71.47;93942.41;5040363;28;20260;-68
2023/10/20 06:04:13;;;;;;;10.63;7.30;;;;;;;16.93;71.56;93938.72;5030102;28;20222;-68
2023/10/20 06:06:50;;;;;;;9.03;8.03;;;;;;;16.94;71.47;93928.94;5035523;28;20270;-69
2023/10/20 06:09:19;;;;;;;8.23;7.43;;;;;;;16.95;71.47;93928.69;5028871;28;20245;-69
2023/10/20 06:11:45;;;;;;;12.97;7.60;;;;;;;16.96;71.32;93937.41;5023476;28;20454;-69
2023/10/20 06:14:10;;;;;;;9.90;7.30;;;;;;;16.93;71.45;93924.72;5033412;28;20190;-67
2023/10/20 06:16:36;;;;;;;9.57;7.17;;;;;;;16.92;71.20;93917.84;5034893;28;20238;-68
2023/10/20 06:19:01;;;;;;;10.37;7.57;;;;;;;16.91;71.38;93903.81;5033249;28;20188;-69
2023/10/20 06:21:28;;;;;;;11.07;7.80;;;;;;;16.93;71.37;93904.34;5030949;28;20207;-69
2023/10/20 06:23:54;;;;;;;9.00;8.10;;;;;;;16.93;71.38;93901.69;5038780;28;20197;-69
2023/10/20 06:26:19;;;;;;;8.00;7.03;;;;;;;16.91;71.37;93901.19;5043444;28;20509;-67
2023/10/20 06:28:45;;;;;;;9.67;8.17;;;;;;;16.88;71.25;93905.16;5039179;28;20241;-69
2023/10/20 06:31:27;;;;;;;13.50;8.30;;;;;;;16.87;71.36;93910.72;5040986;28;20226;-69
2023/10/20 06:36:59;;;;;;;12.57;7.33;;;;;;;16.91;71.13;93872.09;5021324;28;20812;-69
2023/10/20 06:39:26;;;;;;;7.73;6.87;;;;;;;16.89;70.82;93887.44;5030092;28;20429;-69
2023/10/20 06:41:51;;;;;;;9.10;7.37;;;;;;;16.88;70.83;93864.72;5033242;28;20886;-69
2023/10/20 06:44:17;;;;;;;9.97;7.40;;;;;;;16.89;70.66;93848.56;5035739;28;20562;-69
2023/10/20 06:46:42;;;;;;;11.13;7.40;;;;;;;16.86;70.58;93853.63;5030727;28;20247;-68
2023/10/20 06:49:08;;;;;;;9.70;7.90;;;;;;;16.87;70.86;93863.13;5049914;28;20338;-69
2023/10/20 06:51:33;;;;;;;9.40;7.47;;;;;;;16.90;70.58;93854.63;5032013;28;20768;-69
2023/10/20 06:53:58;;;;;;;7.90;7.10;;;;;;;16.92;70.66;93841.94;5022768;28;20599;-70
2023/10/20 06:56:24;;;;;;;11.20;7.50;;;;;;;16.96;70.54;93828.97;5027376;28;20188;-70
2023/10/20 06:58:49;;;;;;;15.93;10.60;;;;;;;17.00;70.68;93824.72;5034666;28;20214;-70
2023/10/20 07:01:15;;;;;;;15.53;10.70;;;;;;;17.08;70.66;93812.78;5029938;28;20203;-69
2023/10/20 07:03:40;;;;;;;10.23;8.50;;;;;;;17.14;70.59;93828.34;5024825;28;20192;-71
2023/10/20 07:06:10;;;;;;;12.20;9.00;;;;;;;17.18;70.66;93823.28;5025469;28;20227;-70
2023/10/20 07:08:36;;;;;;;12.30;8.77;;;;;;;17.24;70.72;93816.91;5030398;28;20183;-69
2023/10/20 07:11:02;;;;;;;15.20;9.10;;;;;;;17.31;70.73;93806.78;5036369;28;20476;-70
2023/10/20 07:13:27;;;;;;;9.20;8.03;;;;;;;17.37;70.71;93799.56;5042292;28;20232;-70
2023/10/20 07:15:56;;;;;;;9.43;7.93;;;;;;;17.41;70.46;93797.16;5039237;28;20457;-69
2023/10/20 07:18:22;;;;;;;14.13;7.83;;;;;;;17.42;70.04;93798.75;5036907;28;20562;-70
2023/10/20 07:20:47;;;;;;;8.67;7.83;;;;;;;17.41;69.99;93800.59;5038077;28;20449;-70
2023/10/20 07:23:13;;;;;;;12.17;7.30;;;;;;;17.41;70.04;93807.75;5033530;28;20183;-70
2023/10/20 07:25:38;;;;;;;8.30;7.50;;;;;;;17.45;69.94;93811.41;5034854;28;20184;-69
2023/10/20 07:28:04;;;;;;;10.30;8.43;;;;;;;17.46;69.89;93811.13;5044022;28;20199;-69
2023/10/20 07:30:32;;;;;;;9.47;8.17;;;;;;;17.49;70.00;93810.59;5041169;28;20215;-70
2023/10/20 07:32:58;;;;;;;10.90;8.80;;;;;;;17.52;70.02;93806.56;5033653;28;20180;-70
2023/10/20 07:35:23;;;;;;;14.43;8.60;;;;;;;17.55;69.96;93806.03;5029404;28;20860;-70
2023/10/20 07:37:49;;;;;;;10.37;8.33;;;;;;;17.59;69.99;93807.06;5030610;28;20194;-69
2023/10/20 07:40:14;;;;;;;9.77;8.27;;;;;;;17.59;69.88;93804.41;5029372;28;20553;-70
2023/10/20 07:42:40;;;;;;;8.73;6.80;;;;;;;17.62;70.00;93803.06;5037100;28;20222;-70
2023/10/20 07:45:10;;;;;;;12.33;8.03;;;;;;;17.68;69.90;93795.84;5029100;28;20207;-71
2023/10/20 07:47:36;;;;;;;13.60;8.10;;;;;;;17.70;69.83;93806.97;5030457;28;20184;-70
2023/10/20 07:50:02;;;;;;;7.87;7.17;;;;;;;17.73;69.78;93793.16;5041102;28;20477;-70
2023/10/20 07:52:28;;;;;;;8.87;7.30;;;;;;;17.75;69.75;93807.69;5035138;28;20183;-70
2023/10/20 07:54:53;;;;;;;8.80;7.93;;;;;;;17.76;69.58;93801.31;5039544;28;20180;-71
2023/10/20 07:57:20;;;;;;;24.40;6.83;;;;;;;17.78;69.51;93795.75;5024984;28;20513;-70
2023/10/20 07:59:46;;;;;;;10.80;7.67;;;;;;;17.77;68.73;93791.50;5028479;28;20179;-70
2023/10/20 08:02:11;;;;;;;8.10;7.30;;;;;;;17.80;68.85;93796.25;5039351;28;21038;-70
2023/10/20 08:04:37;;;;;;;8.80;7.03;;;;;;;17.83;68.61;93797.56;5040886;28;20260;-70
2023/10/20 08:07:03;;;;;;;9.97;7.70;;;;;;;17.84;68.42;93801.78;5024017;28;20184;-70
2023/10/20 08:09:29;;;;;;;9.70;7.40;;;;;;;17.86;68.42;93810.22;5029432;28;20181;-70
2023/10/20 08:11:56;;;;;;;9.00;8.10;;;;;;;17.84;67.87;93797.28;5028891;28;20473;-72
2023/10/20 08:14:23;;;;;;;13.83;8.97;;;;;;;17.86;67.64;93813.69;5027912;28;20191;-70
2023/10/20 08:16:49;;;;;;;10.07;9.03;;;;;;;17.85;67.46;93819.25;5040839;28;20418;-71
2023/10/20 08:19:15;;;;;;;11.73;9.07;;;;;;;17.84;67.16;93821.13;5028740;28;20425;-71
2023/10/20 08:21:42;;;;;;;11.33;10.07;;;;;;;17.87;67.20;93830.34;5029178;28;20801;-70
2023/10/20 08:24:08;;;;;;;10.07;8.63;;;;;;;17.89;67.15;93830.88;5029754;28;20205;-70
2023/10/20 08:26:33;;;;;;;12.97;9.60;;;;;;;17.87;66.50;93831.16;5040756;28;20847;-70
2023/10/20 08:28:58;;;;;;;13.00;9.90;;;;;;;17.89;66.48;93844.91;5031327;28;20249;-70
2023/10/20 08:31:25;;;;;;;12.77;9.90;;;;;;;17.91;65.60;93861.28;5040398;28;20298;-70
2023/10/20 08:33:52;;;;;;;14.90;10.87;;;;;;;17.90;64.92;93870.31;5032735;28;20208;-69
2023/10/20 08:36:22;;;;;;;11.23;9.80;;;;;;;17.91;64.75;93866.59;5030145;28;20923;-70
2023/10/20 08:38:49;;;;;;;11.97;9.60;;;;;;;17.98;64.83;93876.88;5029048;28;20465;-70
2023/10/20 08:41:21;;;;;;;15.53;10.87;;;;;;;18.01;64.28;93875.53;5041271;28;20973;-70
2023/10/20 08:43:47;;;;;;;17.53;10.30;;;;;;;18.08;64.33;93878.66;5005005;28;20448;-70
2023/10/20 08:46:13;;;;;;;12.67;10.37;;;;;;;18.18;64.06;93918.28;5031320;28;20415;-70
2023/10/20 08:48:43;;;;;;;12.03;10.77;;;;;;;18.25;64.24;93937.31;5028913;28;20191;-70
2023/10/20 08:51:10;;;;;;;13.80;11.57;;;;;;;18.26;63.69;93941.53;5028996;28;20470;-70
2023/10/20 08:53:36;;;;;;;12.70;11.50;;;;;;;18.36;64.10;93961.03;5028663;28;20418;-68
2023/10/20 08:56:06;;;;;;;12.27;10.63;;;;;;;18.36;63.90;93966.34;5032760;28;20965;-69
2023/10/20 08:58:32;;;;;;;13.97;9.80;;;;;;;18.37;63.75;93975.88;5033593;28;20179;-70
2023/10/20 09:00:59;;;;;;;12.50;10.00;;;;;;;18.37;63.80;93984.59;5031976;28;20450;-69
2023/10/20 09:03:26;;;;;;;15.13;11.20;;;;;;;18.36;64.03;93982.25;5028848;28;20696;-69
2023/10/20 09:05:53;;;;;;;11.47;10.00;;;;;;;18.47;64.17;93998.81;5033451;28;20785;-70
2023/10/20 09:08:18;;;;;;;11.10;10.00;;;;;;;18.55;64.17;93998.22;5038487;28;20413;-69
2023/10/20 09:10:45;;;;;;;14.20;11.00;;;;;;;18.60;64.29;94010.63;5029624;28;21001;-70
2023/10/20 09:13:11;;;;;;;18.60;10.70;;;;;;;18.61;64.16;93991.00;5026742;28;20262;-70
2023/10/20 09:15:37;;;;;;;14.43;9.40;;;;;;;18.51;64.08;93976.00;5031128;28;20460;-68
2023/10/20 09:18:12;;;;;;;9.90;8.67;;;;;;;18.48;64.53;93989.81;5035096;28;20454;-69
2023/10/20 09:20:37;;;;;;;12.20;9.47;;;;;;;18.50;64.43;93988.47;5027977;28;20206;-70
2023/10/20 09:23:12;;;;;;;14.20;9.70;;;;;;;18.53;64.19;93979.16;5027114;28;20510;-69
2023/10/20 09:25:37;;;;;;;10.37;9.33;;;;;;;18.52;64.69;93978.38;5040907;28;20184;-70
2023/10/20 09:28:03;;;;;;;10.77;8.50;;;;;;;18.54;64.46;93991.34;5028661;28;20423;-70
2023/10/20 09:30:28;;;;;;;11.40;8.37;;;;;;;18.49;64.71;93980.78;5035895;28;20219;-70
2023/10/20 09:32:54;;;;;;;9.37;8.30;;;;;;;18.57;64.64;93994.22;5031295;28;20183;-69
2023/10/20 09:35:20;;;;;;;10.13;8.70;;;;;;;18.64;64.61;93987.81;5028013;28;20279;-69
2023/10/20 09:37:49;;;;;;;9.40;8.53;;;;;;;18.78;64.72;93987.91;5028283;28;20859;-69
2023/10/20 09:40:15;;;;;;;10.00;8.97;;;;;;;18.98;64.95;93989.56;5029739;28;20209;-69
2023/10/20 09:42:47;;;;;;;15.63;9.00;;;;;;;19.16;64.75;93996.75;5041285;28;20919;-70
2023/10/20 09:45:16;;;;;;;9.20;8.03;;;;;;;19.28;64.00;94000.88;5028450;28;20288;-69
2023/10/20 09:47:43;;;;;;;13.80;7.43;;;;;;;19.35;63.77;94011.94;5032080;28;20500;-69
2023/10/20 09:50:11;;;;;;;13.90;7.87;;;;;;;19.32;63.39;94028.41;5033862;28;20466;-69
2023/10/20 09:52:39;;;;;;;10.20;7.67;;;;;;;19.30;63.48;94028.72;5030806;28;20422;-69
2023/10/20 09:55:06;;;;;;;13.13;7.27;;;;;;;19.41;63.12;94012.66;4998063;28;20418;-71
2023/10/20 09:57:32;;;;;;;7.90;7.00;;;;;;;19.51;62.86;94025.00;5030826;28;20414;-70
2023/10/20 09:59:57;;;;;;;11.73;7.00;;;;;;;19.59;62.95;94033.13;5031435;28;20432;-71
2023/10/20 10:02:30;;;;;;;7.33;6.63;;;;;;;19.59;62.61;94037.63;5031374;28;20641;-69
2023/10/20 10:05:00;;;;;;;7.30;5.40;;;;;;;19.50;62.53;94045.44;5045121;28;20187;-69
2023/10/20 10:07:32;;;;;;;8.13;5.90;;;;;;;19.49;63.04;94054.47;5023690;28;20431;-70
2023/10/20 10:09:58;;;;;;;5.57;4.70;;;;;;;19.55;62.93;94061.31;5031317;28;20430;-70
2023/10/20 10:12:27;;;;;;;8.10;4.70;;;;;;;19.60;62.46;94071.84;5039967;28;20553;-70
2023/10/20 10:15:07;;;;;;;6.70;4.20;;;;;;;19.53;62.62;94068.78;5036253;28;20176;-70
2023/10/20 10:17:45;;;;;;;3.50;3.20;;;;;;;19.57;62.22;94066.34;5037883;28;20433;-69
2023/10/20 10:20:27;;;;;;;8.20;3.30;;;;;;;19.54;62.46;94082.84;5030995;28;20430;-70
2023/10/20 10:23:05;;;;;;;4.40;3.00;;;;;;;19.70;62.39;94086.88;5021398;28;20985;-69
2023/10/20 10:25:37;;;;;;;3.97;2.90;;;;;;;19.80;62.58;94084.06;5039896;28;20429;-70
2023/10/20 10:28:20;;;;;;;5.07;2.23;;;;;;;19.84;62.06;94094.13;5040477;28;20433;-71
2023/10/20 10:30:51;;;;;;;8.53;2.53;;;;;;;19.91;62.31;94099.94;5031765;28;20466;-69
2023/10/20 10:33:20;;;;;;;3.00;2.27;;;;;;;19.97;61.80;94098.78;5041089;28;20430;-70
2023/10/20 10:35:46;;;;;;;2.30;2.10;;;;;;;20.01;61.86;94097.13;5030967;28;20960;-69
2023/10/20 10:38:24;;;;;;;5.33;2.20;;;;;;;20.08;61.67;94105.50;5031659;28;20430;-70
2023/10/20 10:40:52;;;;;;;2.37;2.07;;;;;;;20.15;61.72;94107.03;5042228;28;20205;-71
2023/10/20 10:43:19;;;;;;;4.73;1.90;;;;;;;20.12;61.38;94113.69;5039052;28;20526;-70
2023/10/20 10:45:45;;;;;;;2.57;2.33;;;;;;;20.12;61.56;94116.34;5036535;28;20418;-70
2023/10/20 10:48:12;;;;;;;1.57;1.47;;;;;;;20.06;61.77;94130.81;5031780;28;20415;-69
2023/10/20 10:50:39;;;;;;;1.70;1.60;;;;;;;20.04;61.67;94124.97;5031873;28;20251;-69
2023/10/20 10:53:04;;;;;;;2.00;1.80;;;;;;;19.99;61.09;94131.16;5035727;28;20415;-70
2023/10/20 10:55:30;;;;;;;1.90;1.80;;;;;;;20.05;61.31;94123.91;5031410;28;20434;-70
2023/10/20 10:57:57;;;;;;;2.33;1.60;;;;;;;20.01;60.84;94118.38;5037010;28;20273;-71
2023/10/20 11:00:23;;;;;;;3.73;2.57;;;;;;;20.02;60.64;94129.78;5029871;28;20450;-71
2023/10/20 11:02:49;;;;;;;1.20;1.10;;;;;;;20.03;60.12;94132.19;5030558;28;21018;-70
2023/10/20 11:05:16;;;;;;;1.53;0.90;;;;;;;19.97;58.54;94143.94;5030012;28;20511;-70
2023/10/20 11:07:54;;;;;;;1.90;0.90;;;;;;;20.05;58.28;94140.63;5035219;28;20509;-70
2023/10/20 11:10:20;;;;;;;1.10;1.00;;;;;;;20.12;57.50;94156.22;5034580;28;20466;-69
2023/10/20 11:12:49;;;;;;;0.90;0.60;;;;;;;20.00;57.10;94158.50;5037027;28;20931;-70
2023/10/20 11:15:15;;;;;;;1.13;0.70;;;;;;;20.10;56.96;94155.72;5038420;28;20500;-70
2023/10/20 11:17:41;;;;;;;1.77;0.77;;;;;;;20.03;56.50;94164.06;5034634;28;21129;-69
2023/10/20 11:20:09;;;;;;;1.00;0.60;;;;;;;20.04;56.47;94156.88;5033586;28;20745;-69
2023/10/20 11:22:38;;;;;;;0.80;0.50;;;;;;;20.12;56.45;94160.75;5042231;28;20414;-70
2023/10/20 11:25:05;;;;;;;0.83;0.57;;;;;;;20.09;56.09;94181.50;5041276;28;20449;-70
2023/10/20 11:27:41;;;;;;;2.03;0.60;;;;;;;20.12;56.46;94182.03;5038503;28;20414;-69
2023/10/20 11:30:07;;;;;;;1.53;0.63;;;;;;;20.14;56.57;94177.22;5027857;28;20474;-70
2023/10/20 11:32:33;;;;;;;1.53;0.60;;;;;;;20.19;56.57;94177.13;5041432;28;20787;-70
2023/10/20 11:34:59;;;;;;;0.87;0.60;;;;;;;20.26;56.60;94183.66;5030073;28;20789;-69
2023/10/20 11:37:24;;;;;;;3.63;0.67;;;;;;;20.24;56.72;94185.03;5029935;28;20431;-69
2023/10/20 11:39:50;;;;;;;0.80;0.50;;;;;;;20.23;57.08;94188.78;5029937;28;20616;-69
2023/10/20 11:42:15;;;;;;;1.10;0.70;;;;;;;20.30;56.70;94183.88;5026975;28;20234;-69
2023/10/20 11:44:40;;;;;;;1.33;0.70;;;;;;;20.15;56.73;94197.41;5038267;28;20223;-70
2023/10/20 11:47:06;;;;;;;1.00;0.60;;;;;;;19.85;56.96;94194.78;5037189;28;20274;-70
2023/10/20 11:49:31;;;;;;;1.20;0.53;;;;;;;20.13;56.94;94194.25;5034467;28;20175;-70
2023/10/20 11:51:57;;;;;;;1.03;0.60;;;;;;;20.07;57.24;94201.50;5029939;28;20257;-69
2023/10/20 11:54:22;;;;;;;2.43;1.63;;;;;;;20.23;57.11;94215.38;5031157;28;20190;-69
2023/10/20 11:56:48;;;;;;;1.00;0.70;;;;;;;20.24;57.08;94212.41;5037198;28;20318;-69
2023/10/20 11:59:14;;;;;;;1.10;0.60;;;;;;;20.22;57.17;94227.88;5029630;28;20191;-70